Houma, LA (70360)

8:28 PM CST on February 10, 2016 (GMT -0600)
Houma-terrebonne | | Change Station
CLOSE
Current Station
Airport
Location: Houma,
Elevation: 10 ft
Nearby Weather Stations

Elev 10 ft 29.57 °N, 90.66 °W | Updated 13 minutes ago

Clear
Clear
46 °F
Feels Like 42 °F
N
7
Wind Variable Wind from WSW

Today
High -- | Low -- °F
--% Chance of Precip.
Yesterday
High -- | Low -- °F
Precip. -- in
Pressure 30.29 in
Visibility 5.0 miles
Clouds Clear
Windchill 42 °F
Dew Point 36 °F
Humidity 68%
Rainfall 0.00 in
Snow Depth Not available.
6:46 AM 5:48 PM
Waxing Crescent, 8% visible
METAR KHUM 110215Z AUTO 24006KT 5SM HZ CLR 08/02 A3029 RMK AO2 T00760020
Pressure 30.29 in
Visibility 5.0 miles
Clouds Clear
Windchill 42 °F
Dew Point 36 °F
Humidity 68%
Rainfall 0.00 in
Snow Depth Not available.
6:46 AM 5:48 PM
Waxing Crescent, 8% visible
METAR KHUM 110215Z AUTO 24006KT 5SM HZ CLR 08/02 A3029 RMK AO2 T00760020

10-Day Weather Forecast

Almanac

Astronomy

Feb. 10, 2016 Rise Set
Actual Time
Civil Twilight
Nautical Twilight
Astronomical Twilight
Moon
Length of Visible Light
Length of Day
Tomorrow will be .
, % of the Moon is Illuminated

Today's Extremes

State Highs State Lows

Community

WunderPhotos

Upload Photos

1,891,984 photos uploaded!

WunderBlog® & News

Nearby

Air Quality

  Air Quality AQ Index Pollutant
Not available.

Snow Depth

Station Depth Elevation

Earthquake Activity

City Distance Mag. Time & Date
Minimum magnitude displayed is 2.5.

Coastal Water Temperatures

Place Temperature

Stations

Nearby Weather Stations

Station Location Temp. Windchill Dew Point Humidity Wind Precip. Elev Updated Type
                   

Watches & Warnings

There are currently no watches in effect.